sensor_id;sensor_type;location;lat;lon;timestamp;pressure;altitude;pressure_sealevel;temperature;humidity
73817;BME280;62146;53.232;-1.304;2023-02-26T00:02:25;101426.03;;;3.94;100.00
73817;BME280;62146;53.232;-1.304;2023-02-26T00:04:52;101422.47;;;3.87;100.00
73817;BME280;62146;53.232;-1.304;2023-02-26T00:07:19;101426.41;;;3.83;100.00
73817;BME280;62146;53.232;-1.304;2023-02-26T00:09:45;101427.41;;;3.82;100.00
73817;BME280;62146;53.232;-1.304;2023-02-26T00:12:12;101424.94;;;3.80;100.00
73817;BME280;62146;53.232;-1.304;2023-02-26T00:14:39;101417.75;;;3.82;100.00
73817;BME280;62146;53.232;-1.304;2023-02-26T00:19:57;101433.66;;;3.81;100.00
73817;BME280;62146;53.232;-1.304;2023-02-26T00:22:24;101430.19;;;3.80;100.00
73817;BME280;62146;53.232;-1.304;2023-02-26T00:24:50;101426.41;;;3.83;100.00
73817;BME280;62146;53.232;-1.304;2023-02-26T00:27:17;101425.59;;;3.82;100.00
73817;BME280;62146;53.232;-1.304;2023-02-26T00:29:44;101433.28;;;3.84;100.00
73817;BME280;62146;53.232;-1.304;2023-02-26T00:32:11;101432.47;;;3.83;100.00
73817;BME280;62146;53.232;-1.304;2023-02-26T00:34:38;101439.34;;;3.84;100.00
73817;BME280;62146;53.232;-1.304;2023-02-26T00:37:22;101436.09;;;3.82;100.00
73817;BME280;62146;53.232;-1.304;2023-02-26T00:40:05;101432.66;;;3.82;100.00
73817;BME280;62146;53.232;-1.304;2023-02-26T00:42:36;101441.34;;;3.82;100.00
73817;BME280;62146;53.232;-1.304;2023-02-26T00:45:03;101427.41;;;3.82;100.00
73817;BME280;62146;53.232;-1.304;2023-02-26T00:50:16;101435.91;;;3.84;100.00
73817;BME280;62146;53.232;-1.304;2023-02-26T00:55:29;101431.84;;;3.81;100.00
73817;BME280;62146;53.232;-1.304;2023-02-26T00:57:55;101433.47;;;3.82;100.00
73817;BME280;62146;53.232;-1.304;2023-02-26T01:00:22;101432.47;;;3.83;100.00
73817;BME280;62146;53.232;-1.304;2023-02-26T01:02:49;101430.66;;;3.84;100.00
73817;BME280;62146;53.232;-1.304;2023-02-26T01:05:16;101433.28;;;3.84;100.00
73817;BME280;62146;53.232;-1.304;2023-02-26T01:07:53;101432.47;;;3.83;100.00
73817;BME280;62146;53.232;-1.304;2023-02-26T01:10:25;101430.53;;;3.85;100.00
73817;BME280;62146;53.232;-1.304;2023-02-26T01:12:52;101428.38;;;3.89;100.00
73817;BME280;62146;53.232;-1.304;2023-02-26T01:15:19;101435.41;;;3.88;100.00
73817;BME280;62146;53.232;-1.304;2023-02-26T01:18:05;101442.13;;;3.91;100.00
73817;BME280;62146;53.232;-1.304;2023-02-26T01:21:02;101441.94;;;3.92;100.00
73817;BME280;62146;53.232;-1.304;2023-02-26T01:23:38;101442.78;;;3.93;100.00
73817;BME280;62146;53.232;-1.304;2023-02-26T01:26:10;101455.53;;;3.96;100.00
73817;BME280;62146;53.232;-1.304;2023-02-26T01:28:39;101457.19;;;3.97;100.00
73817;BME280;62146;53.232;-1.304;2023-02-26T01:31:15;101453.56;;;3.98;100.00
73817;BME280;62146;53.232;-1.304;2023-02-26T01:33:52;101462.06;;;3.99;100.00
73817;BME280;62146;53.232;-1.304;2023-02-26T01:36:27;101466.69;;;3.98;100.00
73817;BME280;62146;53.232;-1.304;2023-02-26T01:39:05;101469.31;;;3.98;100.00
73817;BME280;62146;53.232;-1.304;2023-02-26T01:41:46;101479.09;;;4.03;100.00
73817;BME280;62146;53.232;-1.304;2023-02-26T01:44:26;101469.44;;;4.04;100.00
73817;BME280;62146;53.232;-1.304;2023-02-26T01:49:40;101473.50;;;4.06;100.00
73817;BME280;62146;53.232;-1.304;2023-02-26T01:55:17;101478.44;;;4.09;100.00
73817;BME280;62146;53.232;-1.304;2023-02-26T01:57:44;101469.75;;;4.09;100.00
73817;BME280;62146;53.232;-1.304;2023-02-26T02:00:12;101470.38;;;4.11;100.00
73817;BME280;62146;53.232;-1.304;2023-02-26T02:02:39;101465.97;;;4.11;100.00
73817;BME280;62146;53.232;-1.304;2023-02-26T02:05:12;101468.13;;;4.08;100.00
73817;BME280;62146;53.232;-1.304;2023-02-26T02:07:41;101473.69;;;4.05;100.00
73817;BME280;62146;53.232;-1.304;2023-02-26T02:10:08;101478.47;;;4.01;100.00
73817;BME280;62146;53.232;-1.304;2023-02-26T02:21:27;101487.53;;;3.91;100.00
73817;BME280;62146;53.232;-1.304;2023-02-26T02:24:53;101490.00;;;3.93;100.00
73817;BME280;62146;53.232;-1.304;2023-02-26T02:27:03;101496.22;;;3.92;100.00
73817;BME280;62146;53.232;-1.304;2023-02-26T02:32:09;101498.69;;;3.93;100.00
73817;BME280;62146;53.232;-1.304;2023-02-26T02:37:20;101484.56;;;3.94;100.00
73817;BME280;62146;53.232;-1.304;2023-02-26T02:39:57;101495.06;;;3.94;100.00
73817;BME280;62146;53.232;-1.304;2023-02-26T02:42:31;101498.84;;;3.92;100.00
73817;BME280;62146;53.232;-1.304;2023-02-26T02:45:04;101501.31;;;3.93;100.00
73817;BME280;62146;53.232;-1.304;2023-02-26T02:47:34;101500.66;;;3.91;100.00
73817;BME280;62146;53.232;-1.304;2023-02-26T02:53:01;101510.13;;;3.92;100.00
73817;BME280;62146;53.232;-1.304;2023-02-26T02:55:34;101504.25;;;3.90;100.00
73817;BME280;62146;53.232;-1.304;2023-02-26T02:58:17;101500.34;;;3.86;100.00
73817;BME280;62146;53.232;-1.304;2023-02-26T03:00:51;101503.78;;;3.87;100.00
73817;BME280;62146;53.232;-1.304;2023-02-26T03:04:05;101515.75;;;3.89;100.00
73817;BME280;62146;53.232;-1.304;2023-02-26T03:06:33;101517.19;;;3.92;100.00
73817;BME280;62146;53.232;-1.304;2023-02-26T03:09:01;101514.75;;;3.90;100.00
73817;BME280;62146;53.232;-1.304;2023-02-26T03:11:30;101509.19;;;3.93;100.00
73817;BME280;62146;53.232;-1.304;2023-02-26T03:13:58;101508.00;;;3.96;100.00
73817;BME280;62146;53.232;-1.304;2023-02-26T03:16:54;101518.50;;;3.96;100.00
73817;BME280;62146;53.232;-1.304;2023-02-26T03:30:28;101518.63;;;4.02;100.00
73817;BME280;62146;53.232;-1.304;2023-02-26T03:33:23;101515.03;;;4.03;100.00
73817;BME280;62146;53.232;-1.304;2023-02-26T03:36:05;101511.44;;;4.04;100.00
73817;BME280;62146;53.232;-1.304;2023-02-26T03:38:47;101510.25;;;4.06;100.00
73817;BME280;62146;53.232;-1.304;2023-02-26T03:41:20;101522.22;;;4.09;100.00
73817;BME280;62146;53.232;-1.304;2023-02-26T03:43:59;101521.22;;;4.10;100.00
73817;BME280;62146;53.232;-1.304;2023-02-26T03:46:49;101521.22;;;4.10;100.00
73817;BME280;62146;53.232;-1.304;2023-02-26T03:49:29;101531.72;;;4.10;100.00
73817;BME280;62146;53.232;-1.304;2023-02-26T03:51:59;101519.59;;;4.09;100.00
73817;BME280;62146;53.232;-1.304;2023-02-26T03:54:37;101524.19;;;4.07;100.00
73817;BME280;62146;53.232;-1.304;2023-02-26T03:57:05;101523.22;;;4.08;100.00
73817;BME280;62146;53.232;-1.304;2023-02-26T03:59:32;101530.09;;;4.09;100.00
73817;BME280;62146;53.232;-1.304;2023-02-26T04:02:04;101527.81;;;4.06;100.00
73817;BME280;62146;53.232;-1.304;2023-02-26T04:06:59;101534.72;;;3.99;100.00
73817;BME280;62146;53.232;-1.304;2023-02-26T04:09:26;101538.03;;;3.93;100.00
73817;BME280;62146;53.232;-1.304;2023-02-26T04:11:53;101542.50;;;3.85;100.00
73817;BME280;62146;53.232;-1.304;2023-02-26T04:14:22;101548.41;;;3.79;100.00
73817;BME280;62146;53.232;-1.304;2023-02-26T04:16:48;101553.81;;;3.77;100.00
73817;BME280;62146;53.232;-1.304;2023-02-26T04:19:15;101548.91;;;3.74;100.00
73817;BME280;62146;53.232;-1.304;2023-02-26T04:21:41;101550.72;;;3.74;100.00
73817;BME280;62146;53.232;-1.304;2023-02-26T04:24:08;101561.03;;;3.75;100.00
73817;BME280;62146;53.232;-1.304;2023-02-26T04:26:35;101572.69;;;3.81;100.00
73817;BME280;62146;53.232;-1.304;2023-02-26T04:29:02;101584.78;;;3.82;100.00
73817;BME280;62146;53.232;-1.304;2023-02-26T04:31:28;101580.19;;;3.84;100.00
73817;BME280;62146;53.232;-1.304;2023-02-26T04:33:55;101574.28;;;3.90;100.00
73817;BME280;62146;53.232;-1.304;2023-02-26T04:36:21;101575.09;;;3.90;100.00
73817;BME280;62146;53.232;-1.304;2023-02-26T04:38:49;101572.13;;;3.93;100.00
73817;BME280;62146;53.232;-1.304;2023-02-26T04:41:15;101577.38;;;3.93;100.00
73817;BME280;62146;53.232;-1.304;2023-02-26T04:43:42;101576.22;;;3.96;100.00
73817;BME280;62146;53.232;-1.304;2023-02-26T04:46:08;101585.56;;;3.98;100.00
73817;BME280;62146;53.232;-1.304;2023-02-26T04:48:35;101583.75;;;3.99;100.00
73817;BME280;62146;53.232;-1.304;2023-02-26T04:51:02;101589.81;;;3.99;100.00
73817;BME280;62146;53.232;-1.304;2023-02-26T04:53:29;101591.13;;;3.95;100.00
73817;BME280;62146;53.232;-1.304;2023-02-26T04:55:55;101590.03;;;3.90;100.00
73817;BME280;62146;53.232;-1.304;2023-02-26T04:58:22;101599.53;;;3.83;100.00
73817;BME280;62146;53.232;-1.304;2023-02-26T05:00:50;101597.25;;;3.80;100.00
73817;BME280;62146;53.232;-1.304;2023-02-26T05:03:17;101607.25;;;3.76;100.00
73817;BME280;62146;53.232;-1.304;2023-02-26T05:05:43;101605.94;;;3.72;100.00
73817;BME280;62146;53.232;-1.304;2023-02-26T05:08:10;101608.56;;;3.72;100.00
73817;BME280;62146;53.232;-1.304;2023-02-26T05:10:36;101609.06;;;3.76;100.00
73817;BME280;62146;53.232;-1.304;2023-02-26T05:13:03;101606.28;;;3.77;100.00
73817;BME280;62146;53.232;-1.304;2023-02-26T05:15:30;101601.03;;;3.77;100.00
73817;BME280;62146;53.232;-1.304;2023-02-26T05:17:57;101609.72;;;3.78;100.00
73817;BME280;62146;53.232;-1.304;2023-02-26T05:20:23;101603.47;;;3.79;100.00
73817;BME280;62146;53.232;-1.304;2023-02-26T05:22:50;101601.03;;;3.77;100.00
73817;BME280;62146;53.232;-1.304;2023-02-26T05:25:17;101613.16;;;3.78;100.00
73817;BME280;62146;53.232;-1.304;2023-02-26T05:27:43;101609.53;;;3.79;100.00
73817;BME280;62146;53.232;-1.304;2023-02-26T05:30:13;101613.66;;;3.82;100.00
73817;BME280;62146;53.232;-1.304;2023-02-26T05:32:40;101614.47;;;3.82;100.00
73817;BME280;62146;53.232;-1.304;2023-02-26T05:35:08;101610.22;;;3.81;100.00
73817;BME280;62146;53.232;-1.304;2023-02-26T05:37:36;101619.03;;;3.80;100.00
73817;BME280;62146;53.232;-1.304;2023-02-26T05:40:04;101617.25;;;3.81;100.00
73817;BME280;62146;53.232;-1.304;2023-02-26T05:42:31;101614.28;;;3.84;100.00
73817;BME280;62146;53.232;-1.304;2023-02-26T05:44:58;101625.59;;;3.84;100.00
73817;BME280;62146;53.232;-1.304;2023-02-26T05:47:25;101624.44;;;3.87;100.00
73817;BME280;62146;53.232;-1.304;2023-02-26T05:49:52;101626.25;;;3.86;100.00
73817;BME280;62146;53.232;-1.304;2023-02-26T05:52:18;101625.25;;;3.87;100.00
73817;BME280;62146;53.232;-1.304;2023-02-26T05:54:45;101626.88;;;3.88;100.00
73817;BME280;62146;53.232;-1.304;2023-02-26T05:57:11;101634.13;;;3.86;100.00
73817;BME280;62146;53.232;-1.304;2023-02-26T05:59:38;101629.06;;;3.85;100.00
73817;BME280;62146;53.232;-1.304;2023-02-26T06:02:05;101629.06;;;3.85;100.00
73817;BME280;62146;53.232;-1.304;2023-02-26T06:04:31;101631.69;;;3.85;100.00
73817;BME280;62146;53.232;-1.304;2023-02-26T06:06:58;101638.06;;;3.82;100.00
73817;BME280;62146;53.232;-1.304;2023-02-26T06:09:25;101633.31;;;3.78;100.00
73817;BME280;62146;53.232;-1.304;2023-02-26T06:11:51;101640.53;;;3.76;100.00
73817;BME280;62146;53.232;-1.304;2023-02-26T06:14:18;101636.78;;;3.71;100.00
73817;BME280;62146;53.232;-1.304;2023-02-26T06:16:44;101639.72;;;3.68;100.00
73817;BME280;62146;53.232;-1.304;2023-02-26T06:19:11;101640.41;;;3.62;100.00
73817;BME280;62146;53.232;-1.304;2023-02-26T06:21:38;101656.47;;;3.59;100.00
73817;BME280;62146;53.232;-1.304;2023-02-26T06:24:04;101663.00;;;3.55;100.00
73817;BME280;62146;53.232;-1.304;2023-02-26T06:26:31;101656.47;;;3.51;100.00
73817;BME280;62146;53.232;-1.304;2023-02-26T06:28:58;101670.38;;;3.51;100.00
73817;BME280;62146;53.232;-1.304;2023-02-26T06:31:25;101665.63;;;3.47;100.00
73817;BME280;62146;53.232;-1.304;2023-02-26T06:33:51;101672.50;;;3.48;100.00
73817;BME280;62146;53.232;-1.304;2023-02-26T06:36:18;101681.50;;;3.46;100.00
73817;BME280;62146;53.232;-1.304;2023-02-26T06:38:44;101671.53;;;3.49;100.00
73817;BME280;62146;53.232;-1.304;2023-02-26T06:41:11;101694.13;;;3.50;100.00
73817;BME280;62146;53.232;-1.304;2023-02-26T06:43:38;101687.09;;;3.50;100.00
73817;BME280;62146;53.232;-1.304;2023-02-26T06:46:05;101699.03;;;3.53;100.00
73817;BME280;62146;53.232;-1.304;2023-02-26T06:48:31;101698.22;;;3.52;100.00
73817;BME280;62146;53.232;-1.304;2023-02-26T06:50:59;101692.00;;;3.53;100.00
73817;BME280;62146;53.232;-1.304;2023-02-26T06:53:25;101694.47;;;3.55;100.00
73817;BME280;62146;53.232;-1.304;2023-02-26T06:55:52;101703.47;;;3.60;100.00
73817;BME280;62146;53.232;-1.304;2023-02-26T06:58:19;101692.16;;;3.60;100.00
73817;BME280;62146;53.232;-1.304;2023-02-26T07:00:46;101698.09;;;3.62;100.00
73817;BME280;62146;53.232;-1.304;2023-02-26T07:03:14;101699.72;;;3.63;100.00
73817;BME280;62146;53.232;-1.304;2023-02-26T07:05:42;101697.09;;;3.63;100.00
73817;BME280;62146;53.232;-1.304;2023-02-26T07:08:09;101702.03;;;3.66;100.00
73817;BME280;62146;53.232;-1.304;2023-02-26T07:10:36;101702.97;;;3.65;100.00
73817;BME280;62146;53.232;-1.304;2023-02-26T07:13:03;101706.28;;;3.67;100.00
73817;BME280;62146;53.232;-1.304;2023-02-26T07:15:30;101704.28;;;3.69;100.00
73817;BME280;62146;53.232;-1.304;2023-02-26T07:17:56;101709.53;;;3.69;100.00
73817;BME280;62146;53.232;-1.304;2023-02-26T07:20:26;101706.78;;;3.70;100.00
73817;BME280;62146;53.232;-1.304;2023-02-26T07:22:53;101709.41;;;3.70;100.00
73817;BME280;62146;53.232;-1.304;2023-02-26T07:25:19;101719.06;;;3.62;100.00
73817;BME280;62146;53.232;-1.304;2023-02-26T07:27:46;101715.28;;;3.56;100.00
73817;BME280;62146;53.232;-1.304;2023-02-26T07:30:13;101715.94;;;3.50;100.00
73817;BME280;62146;53.232;-1.304;2023-02-26T07:32:40;101712.16;;;3.45;100.00
73817;BME280;62146;53.232;-1.304;2023-02-26T07:35:07;101722.81;;;3.44;100.00
73817;BME280;62146;53.232;-1.304;2023-02-26T07:37:34;101729.50;;;3.38;100.00
73817;BME280;62146;53.232;-1.304;2023-02-26T07:40:00;101732.47;;;3.35;100.00
73817;BME280;62146;53.232;-1.304;2023-02-26T07:42:27;101730.00;;;3.34;100.00
73817;BME280;62146;53.232;-1.304;2023-02-26T07:44:56;101733.91;;;3.30;100.00
73817;BME280;62146;53.232;-1.304;2023-02-26T07:47:23;101735.72;;;3.29;100.00
73817;BME280;62146;53.232;-1.304;2023-02-26T07:49:50;101742.56;;;3.22;100.00
73817;BME280;62146;53.232;-1.304;2023-02-26T07:52:16;101752.25;;;3.22;100.00
73817;BME280;62146;53.232;-1.304;2023-02-26T07:54:43;101754.22;;;3.20;100.00
73817;BME280;62146;53.232;-1.304;2023-02-26T07:57:09;101768.13;;;3.20;100.00
73817;BME280;62146;53.232;-1.304;2023-02-26T07:59:36;101764.53;;;3.21;100.00
73817;BME280;62146;53.232;-1.304;2023-02-26T08:02:02;101767.78;;;3.23;100.00
73817;BME280;62146;53.232;-1.304;2023-02-26T08:04:29;101775.19;;;3.28;100.00
73817;BME280;62146;53.232;-1.304;2023-02-26T08:06:59;101771.94;;;3.34;100.00
73817;BME280;62146;53.232;-1.304;2023-02-26T08:09:26;101781.09;;;3.38;100.00
73817;BME280;62146;53.232;-1.304;2023-02-26T08:11:53;101778.50;;;3.46;100.00
73817;BME280;62146;53.232;-1.304;2023-02-26T08:14:20;101787.38;;;3.52;100.00
73817;BME280;62146;53.232;-1.304;2023-02-26T08:16:47;101785.44;;;3.54;100.00
73817;BME280;62146;53.232;-1.304;2023-02-26T08:19:13;101779.69;;;3.59;100.00
73817;BME280;62146;53.232;-1.304;2023-02-26T08:21:40;101787.25;;;3.62;100.00
73817;BME280;62146;53.232;-1.304;2023-02-26T08:24:06;101782.47;;;3.65;100.00
73817;BME280;62146;53.232;-1.304;2023-02-26T08:26:37;101795.13;;;3.70;100.00
73817;BME280;62146;53.232;-1.304;2023-02-26T08:29:04;101788.72;;;3.72;100.00
73817;BME280;62146;53.232;-1.304;2023-02-26T08:31:30;101796.09;;;3.76;100.00
73817;BME280;62146;53.232;-1.304;2023-02-26T08:33:57;101795.78;;;3.79;100.00
73817;BME280;62146;53.232;-1.304;2023-02-26T08:36:24;101793.66;;;3.83;100.00
73817;BME280;62146;53.232;-1.304;2023-02-26T08:38:51;101794.97;;;3.87;100.00
73817;BME280;62146;53.232;-1.304;2023-02-26T08:41:18;101804.97;;;3.91;100.00
73817;BME280;62146;53.232;-1.304;2023-02-26T08:43:44;101812.69;;;3.93;100.00
73817;BME280;62146;53.232;-1.304;2023-02-26T08:46:11;101812.34;;;3.96;100.00
73817;BME280;62146;53.232;-1.304;2023-02-26T08:48:38;101818.75;;;4.01;100.00
73817;BME280;62146;53.232;-1.304;2023-02-26T08:51:04;101819.25;;;4.04;100.00
73817;BME280;62146;53.232;-1.304;2023-02-26T08:53:31;101824.00;;;4.09;100.00
73817;BME280;62146;53.232;-1.304;2023-02-26T08:55:57;101819.25;;;4.12;100.00
73817;BME280;62146;53.232;-1.304;2023-02-26T08:58:24;101823.34;;;4.15;100.00
73817;BME280;62146;53.232;-1.304;2023-02-26T09:00:51;101831.56;;;4.20;100.00
73817;BME280;62146;53.232;-1.304;2023-02-26T09:03:17;101826.81;;;4.23;100.00
73817;BME280;62146;53.232;-1.304;2023-02-26T09:05:44;101837.44;;;4.29;100.00
73817;BME280;62146;53.232;-1.304;2023-02-26T09:08:10;101837.78;;;4.34;100.00
73817;BME280;62146;53.232;-1.304;2023-02-26T09:10:41;101843.50;;;4.38;100.00
73817;BME280;62146;53.232;-1.304;2023-02-26T09:13:08;101833.34;;;4.43;100.00
73817;BME280;62146;53.232;-1.304;2023-02-26T09:15:34;101846.78;;;4.48;100.00
73817;BME280;62146;53.232;-1.304;2023-02-26T09:18:01;101837.59;;;4.52;100.00
73817;BME280;62146;53.232;-1.304;2023-02-26T09:20:27;101844.16;;;4.55;100.00
73817;BME280;62146;53.232;-1.304;2023-02-26T09:22:54;101853.34;;;4.59;100.00
73817;BME280;62146;53.232;-1.304;2023-02-26T09:25:21;101852.84;;;4.64;100.00
73817;BME280;62146;53.232;-1.304;2023-02-26T09:27:49;101858.59;;;4.67;100.00
73817;BME280;62146;53.232;-1.304;2023-02-26T09:30:16;101869.44;;;4.72;100.00
73817;BME280;62146;53.232;-1.304;2023-02-26T09:32:42;101867.28;;;4.76;100.00
73817;BME280;62146;53.232;-1.304;2023-02-26T09:35:09;101868.56;;;4.79;100.00
73817;BME280;62146;53.232;-1.304;2023-02-26T09:37:37;101871.56;;;4.84;100.00
73817;BME280;62146;53.232;-1.304;2023-02-26T09:40:04;101876.28;;;4.89;100.00
73817;BME280;62146;53.232;-1.304;2023-02-26T09:45:00;101880.72;;;4.96;100.00
73817;BME280;62146;53.232;-1.304;2023-02-26T09:47:39;101875.78;;;5.01;100.00
73817;BME280;62146;53.232;-1.304;2023-02-26T09:50:17;101874.13;;;5.08;100.00
73817;BME280;62146;53.232;-1.304;2023-02-26T09:53:00;101886.56;;;5.14;100.00
73817;BME280;62146;53.232;-1.304;2023-02-26T09:55:48;101893.78;;;5.20;100.00
73817;BME280;62146;53.232;-1.304;2023-02-26T10:01:34;101899.66;;;5.37;100.00
73817;BME280;62146;53.232;-1.304;2023-02-26T10:12:13;101905.41;;;5.87;100.00
73817;BME280;62146;53.232;-1.304;2023-02-26T10:17:25;101903.44;;;6.11;100.00
73817;BME280;62146;53.232;-1.304;2023-02-26T10:19:59;101898.28;;;6.17;100.00
73817;BME280;62146;53.232;-1.304;2023-02-26T10:23:11;101909.41;;;6.27;100.00
73817;BME280;62146;53.232;-1.304;2023-02-26T10:33:39;101912.78;;;6.57;100.00
73817;BME280;62146;53.232;-1.304;2023-02-26T10:36:28;101908.44;;;6.64;100.00
73817;BME280;62146;53.232;-1.304;2023-02-26T10:39:15;101915.94;;;6.75;100.00
73817;BME280;62146;53.232;-1.304;2023-02-26T10:41:45;101922.22;;;6.88;100.00
73817;BME280;62146;53.232;-1.304;2023-02-26T10:44:21;101917.59;;;7.04;100.00
73817;BME280;62146;53.232;-1.304;2023-02-26T10:49:52;101927.19;;;7.34;100.00
73817;BME280;62146;53.232;-1.304;2023-02-26T10:52:23;101931.84;;;7.46;100.00
73817;BME280;62146;53.232;-1.304;2023-02-26T10:57:35;101928.09;;;7.69;100.00
73817;BME280;62146;53.232;-1.304;2023-02-26T11:00:05;101922.72;;;7.77;100.00
73817;BME280;62146;53.232;-1.304;2023-02-26T11:02:39;101934.81;;;7.86;100.00
73817;BME280;62146;53.232;-1.304;2023-02-26T11:05:26;101929.78;;;7.91;100.00
73817;BME280;62146;53.232;-1.304;2023-02-26T11:08:00;101934.50;;;7.95;100.00
73817;BME280;62146;53.232;-1.304;2023-02-26T11:10:38;101929.06;;;7.97;100.00
73817;BME280;62146;53.232;-1.304;2023-02-26T11:13:05;101933.94;;;8.00;100.00
73817;BME280;62146;53.232;-1.304;2023-02-26T11:15:32;101943.34;;;8.02;100.00
73817;BME280;62146;53.232;-1.304;2023-02-26T11:17:59;101940.53;;;8.03;100.00
73817;BME280;62146;53.232;-1.304;2023-02-26T11:20:38;101947.44;;;8.04;100.00
73817;BME280;62146;53.232;-1.304;2023-02-26T11:23:11;101954.38;;;8.05;100.00
73817;BME280;62146;53.232;-1.304;2023-02-26T11:25:39;101958.66;;;8.06;100.00
73817;BME280;62146;53.232;-1.304;2023-02-26T11:28:45;101955.66;;;8.09;100.00
73817;BME280;62146;53.232;-1.304;2023-02-26T11:31:16;101960.94;;;8.09;100.00
73817;BME280;62146;53.232;-1.304;2023-02-26T11:33:48;101960.75;;;8.11;100.00
73817;BME280;62146;53.232;-1.304;2023-02-26T11:36:18;101966.66;;;8.13;100.00
73817;BME280;62146;53.232;-1.304;2023-02-26T11:38:52;101968.13;;;8.15;100.00
73817;BME280;62146;53.232;-1.304;2023-02-26T11:41:21;101958.03;;;8.19;100.00
73817;BME280;62146;53.232;-1.304;2023-02-26T11:43:59;101969.00;;;8.22;100.00
73817;BME280;62146;53.232;-1.304;2023-02-26T11:46:27;101968.03;;;8.23;100.00
73817;BME280;62146;53.232;-1.304;2023-02-26T11:48:57;101966.81;;;8.26;100.00
73817;BME280;62146;53.232;-1.304;2023-02-26T11:51:27;101957.06;;;8.26;100.00
73817;BME280;62146;53.232;-1.304;2023-02-26T11:53:56;101978.84;;;8.28;100.00
73817;BME280;62146;53.232;-1.304;2023-02-26T11:56:40;101972.19;;;8.32;100.00
73817;BME280;62146;53.232;-1.304;2023-02-26T11:59:19;101967.16;;;8.37;100.00
73817;BME280;62146;53.232;-1.304;2023-02-26T12:01:46;101966.41;;;8.43;100.00
73817;BME280;62146;53.232;-1.304;2023-02-26T12:04:18;101968.72;;;8.52;100.00
73817;BME280;62146;53.232;-1.304;2023-02-26T12:06:48;101979.63;;;8.63;100.00
73817;BME280;62146;53.232;-1.304;2023-02-26T12:09:16;101976.13;;;8.77;100.00
73817;BME280;62146;53.232;-1.304;2023-02-26T12:17:45;101969.41;;;9.02;100.00
73817;BME280;62146;53.232;-1.304;2023-02-26T12:20:28;101969.53;;;9.14;100.00
73817;BME280;62146;53.232;-1.304;2023-02-26T12:31:53;101970.91;;;9.71;100.00
73817;BME280;62146;53.232;-1.304;2023-02-26T12:40:41;101968.13;;;10.18;100.00
73817;BME280;62146;53.232;-1.304;2023-02-26T12:43:13;101965.69;;;10.30;100.00
73817;BME280;62146;53.232;-1.304;2023-02-26T12:51:41;101963.69;;;10.38;100.00
73817;BME280;62146;53.232;-1.304;2023-02-26T13:08:06;101971.13;;;11.00;100.00
73817;BME280;62146;53.232;-1.304;2023-02-26T13:11:00;101974.81;;;11.05;100.00
73817;BME280;62146;53.232;-1.304;2023-02-26T13:17:03;101971.34;;;11.05;100.00
73817;BME280;62146;53.232;-1.304;2023-02-26T13:19:43;101966.84;;;10.99;100.00
73817;BME280;62146;53.232;-1.304;2023-02-26T13:22:17;101972.13;;;10.93;100.00
73817;BME280;62146;53.232;-1.304;2023-02-26T13:24:51;101965.00;;;10.87;100.00
73817;BME280;62146;53.232;-1.304;2023-02-26T13:27:23;101961.13;;;10.83;100.00
73817;BME280;62146;53.232;-1.304;2023-02-26T13:29:59;101966.63;;;10.75;100.00
73817;BME280;62146;53.232;-1.304;2023-02-26T13:32:29;101978.84;;;10.69;100.00
73817;BME280;62146;53.232;-1.304;2023-02-26T13:35:04;101975.16;;;10.64;100.00
73817;BME280;62146;53.232;-1.304;2023-02-26T13:37:38;101969.66;;;10.59;100.00
73817;BME280;62146;53.232;-1.304;2023-02-26T13:48:21;101963.72;;;10.44;100.00
73817;BME280;62146;53.232;-1.304;2023-02-26T13:51:00;101957.78;;;10.49;100.00
73817;BME280;62146;53.232;-1.304;2023-02-26T13:59:03;101957.03;;;11.06;100.00
73817;BME280;62146;53.232;-1.304;2023-02-26T14:01:34;101956.22;;;11.24;100.00
73817;BME280;62146;53.232;-1.304;2023-02-26T14:06:42;101950.50;;;11.40;100.00
73817;BME280;62146;53.232;-1.304;2023-02-26T14:09:41;101958.84;;;11.37;100.00
73817;BME280;62146;53.232;-1.304;2023-02-26T14:14:43;101955.59;;;11.29;100.00
73817;BME280;62146;53.232;-1.304;2023-02-26T14:30:47;101974.78;;;11.18;100.00
73817;BME280;62146;53.232;-1.304;2023-02-26T14:33:17;101969.06;;;11.15;100.00
73817;BME280;62146;53.232;-1.304;2023-02-26T14:35:47;101974.38;;;11.15;100.00
73817;BME280;62146;53.232;-1.304;2023-02-26T14:38:35;101978.47;;;11.11;100.00
73817;BME280;62146;53.232;-1.304;2023-02-26T14:41:13;101975.00;;;11.10;100.00
73817;BME280;62146;53.232;-1.304;2023-02-26T14:43:58;101969.91;;;11.09;100.00
73817;BME280;62146;53.232;-1.304;2023-02-26T14:46:26;101978.47;;;11.11;100.00
73817;BME280;62146;53.232;-1.304;2023-02-26T14:48:52;101976.22;;;11.14;100.00
73817;BME280;62146;53.232;-1.304;2023-02-26T14:51:38;101981.13;;;11.17;100.00
73817;BME280;62146;53.232;-1.304;2023-02-26T14:57:01;101980.09;;;11.18;100.00
73817;BME280;62146;53.232;-1.304;2023-02-26T15:08:02;101983.19;;;11.09;100.00
73817;BME280;62146;53.232;-1.304;2023-02-26T15:23:54;101983.59;;;11.06;100.00
73817;BME280;62146;53.232;-1.304;2023-02-26T15:26:28;101999.72;;;11.04;100.00
73817;BME280;62146;53.232;-1.304;2023-02-26T15:28:56;102007.69;;;11.04;100.00
73817;BME280;62146;53.232;-1.304;2023-02-26T15:31:35;101997.66;;;11.00;100.00
73817;BME280;62146;53.232;-1.304;2023-02-26T15:34:02;102007.88;;;10.96;100.00
73817;BME280;62146;53.232;-1.304;2023-02-26T15:36:30;101998.06;;;10.91;100.00
73817;BME280;62146;53.232;-1.304;2023-02-26T15:38:59;102000.72;;;10.84;100.00
73817;BME280;62146;53.232;-1.304;2023-02-26T15:41:28;102000.91;;;10.76;100.00
73817;BME280;62146;53.232;-1.304;2023-02-26T15:44:23;101995.78;;;10.69;100.00
73817;BME280;62146;53.232;-1.304;2023-02-26T15:46:56;102005.38;;;10.63;100.00
73817;BME280;62146;53.232;-1.304;2023-02-26T15:49:32;102001.47;;;10.53;100.00
73817;BME280;62146;53.232;-1.304;2023-02-26T15:52:02;102001.84;;;10.50;100.00
73817;BME280;62146;53.232;-1.304;2023-02-26T15:54:42;101999.00;;;10.45;100.00